createdAt,value
2023-04-06T00:00:50.341Z,9.00
2023-04-06T00:03:17.866Z,9.50
2023-04-06T00:05:45.063Z,10.63
2023-04-06T00:08:12.313Z,11.93
2023-04-06T00:10:39.480Z,8.57
2023-04-06T00:13:07.338Z,10.50
2023-04-06T00:15:34.814Z,9.00
2023-04-06T00:18:01.978Z,10.27
2023-04-06T00:20:29.246Z,8.63
2023-04-06T00:22:56.653Z,9.68
2023-04-06T00:25:23.881Z,8.90
2023-04-06T00:27:51.293Z,12.15
2023-04-06T00:30:18.705Z,8.98
2023-04-06T00:32:45.908Z,7.35
2023-04-06T00:35:13.094Z,9.40
2023-04-06T00:37:40.203Z,7.32
2023-04-06T00:40:07.932Z,11.25
2023-04-06T00:42:34.980Z,11.00
2023-04-06T00:45:02.921Z,7.60
2023-04-06T00:47:30.223Z,9.63
2023-04-06T00:49:58.216Z,11.95
2023-04-06T00:52:25.255Z,12.73
2023-04-06T00:54:52.713Z,12.32
2023-04-06T00:57:20.012Z,11.18
2023-04-06T00:59:47.351Z,9.02
2023-04-06T01:02:14.502Z,11.30
2023-04-06T01:04:41.605Z,13.50
2023-04-06T01:07:08.660Z,12.02
2023-04-06T01:09:35.834Z,12.98
2023-04-06T01:12:03.298Z,11.32
2023-04-06T01:14:30.585Z,11.80
2023-04-06T01:17:01.534Z,12.63
2023-04-06T01:19:29.046Z,12.05
2023-04-06T01:21:56.729Z,13.55
2023-04-06T01:24:23.880Z,10.77
2023-04-06T01:26:50.917Z,11.55
2023-04-06T01:29:18.180Z,11.60
2023-04-06T01:31:45.403Z,8.93
2023-04-06T01:34:12.566Z,10.85
2023-04-06T01:36:39.738Z,10.52
2023-04-06T01:39:07.040Z,12.63
2023-04-06T01:41:34.404Z,12.68
2023-04-06T01:44:02.661Z,9.73
2023-04-06T01:46:29.832Z,12.60
2023-04-06T01:48:57.106Z,12.13
2023-04-06T01:51:25.586Z,11.43
2023-04-06T01:53:52.859Z,9.35
2023-04-06T01:56:20.055Z,9.80
2023-04-06T01:58:47.198Z,9.30
2023-04-06T02:01:14.832Z,7.70
2023-04-06T02:03:41.948Z,11.18
2023-04-06T02:06:08.961Z,9.25
2023-04-06T02:08:36.281Z,7.22
2023-04-06T02:11:03.465Z,7.47
2023-04-06T02:13:30.733Z,11.10
2023-04-06T02:15:58.298Z,10.82
2023-04-06T02:18:25.604Z,10.52
2023-04-06T02:20:52.783Z,8.07
2023-04-06T02:23:19.888Z,8.13
2023-04-06T02:25:47.158Z,8.10
2023-04-06T02:28:14.226Z,8.95
2023-04-06T02:30:41.370Z,8.88
2023-04-06T02:33:08.522Z,9.43
2023-04-06T02:35:35.696Z,8.48
2023-04-06T02:38:02.760Z,10.10
2023-04-06T02:40:29.816Z,11.10
2023-04-06T02:42:56.882Z,11.95
2023-04-06T02:45:24.018Z,9.88
2023-04-06T02:47:51.126Z,11.88
2023-04-06T02:50:18.266Z,9.32
2023-04-06T02:52:45.344Z,10.65
2023-04-06T02:55:12.400Z,11.18
2023-04-06T02:57:39.529Z,11.73
2023-04-06T03:00:07.941Z,11.60
2023-04-06T03:02:35.117Z,11.90
2023-04-06T03:05:02.730Z,10.77
2023-04-06T03:07:29.863Z,10.90
2023-04-06T03:09:56.961Z,11.38
2023-04-06T03:12:24.043Z,12.13
2023-04-06T03:14:51.293Z,10.30
2023-04-06T03:17:18.368Z,9.57
2023-04-06T03:19:45.438Z,9.82
2023-04-06T03:22:12.521Z,11.68
2023-04-06T03:24:39.594Z,10.00
2023-04-06T03:27:07.462Z,11.82
2023-04-06T03:29:34.621Z,9.52
2023-04-06T03:32:01.645Z,8.88
2023-04-06T03:34:28.718Z,9.48
2023-04-06T03:37:07.054Z,10.25
2023-04-06T03:39:37.568Z,11.07
2023-04-06T03:42:04.727Z,10.20
2023-04-06T03:44:31.795Z,10.32
2023-04-06T03:46:58.970Z,10.50
2023-04-06T03:49:26.232Z,11.00
2023-04-06T03:51:54.756Z,10.75
2023-04-06T03:54:21.830Z,15.82
2023-04-06T03:56:49.036Z,12.75
2023-04-06T03:59:16.472Z,10.60
2023-04-06T04:01:43.713Z,13.40
2023-04-06T04:04:11.631Z,15.32
2023-04-06T04:06:38.731Z,10.02
2023-04-06T04:09:05.923Z,10.07
2023-04-06T04:11:33.012Z,10.52
2023-04-06T04:14:00.165Z,10.30
2023-04-06T04:16:27.246Z,11.32
2023-04-06T04:18:54.378Z,9.48
2023-04-06T04:21:21.464Z,8.20
2023-04-06T04:23:48.563Z,10.35
2023-04-06T04:26:15.853Z,11.23
2023-04-06T04:28:42.983Z,8.10
2023-04-06T04:31:10.065Z,9.73
2023-04-06T04:33:37.443Z,8.70
2023-04-06T04:36:04.804Z,9.73
2023-04-06T04:38:31.918Z,9.70
2023-04-06T04:40:58.998Z,12.57
2023-04-06T04:43:26.134Z,8.68
2023-04-06T04:45:53.698Z,11.75
2023-04-06T04:48:20.979Z,8.80
2023-04-06T04:50:48.078Z,14.20
2023-04-06T04:53:15.182Z,12.05
2023-04-06T04:55:42.204Z,10.93
2023-04-06T04:58:10.372Z,8.40
2023-04-06T05:00:37.436Z,14.30
2023-04-06T05:03:06.215Z,14.85
2023-04-06T05:05:33.419Z,14.35
2023-04-06T05:08:00.590Z,12.88
2023-04-06T05:10:27.789Z,14.38
2023-04-06T05:12:55.210Z,10.10
2023-04-06T05:15:22.256Z,11.43
2023-04-06T05:17:49.457Z,10.75
2023-04-06T05:20:17.229Z,13.43
2023-04-06T05:22:45.644Z,12.40
2023-04-06T05:25:12.721Z,9.52
2023-04-06T05:27:40.423Z,11.35
2023-04-06T05:30:08.710Z,11.43
2023-04-06T05:32:36.473Z,8.93
2023-04-06T05:35:03.770Z,14.00
2023-04-06T05:37:30.884Z,8.27
2023-04-06T05:39:58.090Z,13.98
2023-04-06T05:42:25.129Z,11.05
2023-04-06T05:44:52.200Z,11.43
2023-04-06T05:47:19.344Z,10.00
2023-04-06T05:49:46.506Z,10.80
2023-04-06T05:52:13.626Z,11.02
2023-04-06T05:54:40.762Z,17.58
2023-04-06T05:57:07.827Z,9.93
2023-04-06T05:59:34.984Z,11.15
2023-04-06T06:02:02.657Z,5.90
2023-04-06T06:04:32.214Z,10.52
2023-04-06T06:06:59.385Z,9.75
2023-04-06T06:09:27.320Z,8.18
2023-04-06T06:11:54.829Z,6.95
2023-04-06T06:14:23.008Z,7.45
2023-04-06T06:16:50.127Z,7.97
2023-04-06T06:19:17.266Z,8.43
2023-04-06T06:21:44.388Z,8.18
2023-04-06T06:24:11.494Z,10.98
2023-04-06T06:26:40.557Z,7.32
2023-04-06T06:29:08.538Z,6.13
2023-04-06T06:31:36.432Z,6.05
2023-04-06T06:34:03.572Z,7.47
2023-04-06T06:36:31.960Z,9.18
2023-04-06T06:38:59.634Z,7.57
2023-04-06T06:41:27.273Z,6.85
2023-04-06T06:43:54.472Z,8.18
2023-04-06T06:46:21.948Z,11.20
2023-04-06T06:48:49.120Z,8.23
2023-04-06T06:51:16.546Z,8.35
2023-04-06T06:53:43.687Z,8.32
2023-04-06T06:56:10.800Z,7.60
2023-04-06T06:58:37.967Z,9.85
2023-04-06T07:01:06.497Z,10.90
2023-04-06T07:03:33.642Z,9.52
2023-04-06T07:06:02.249Z,6.25
2023-04-06T07:08:29.485Z,8.43
2023-04-06T07:10:59.525Z,11.18
2023-04-06T07:13:28.493Z,8.65
2023-04-06T07:15:56.043Z,9.07
2023-04-06T07:18:25.063Z,7.60
2023-04-06T07:20:52.349Z,9.93
2023-04-06T07:23:19.465Z,7.75
2023-04-06T07:25:46.874Z,11.07
2023-04-06T07:28:13.959Z,9.02
2023-04-06T07:30:41.582Z,10.07
2023-04-06T07:33:08.683Z,8.85
2023-04-06T07:35:37.976Z,10.38
2023-04-06T07:38:05.527Z,9.05
2023-04-06T07:40:35.543Z,9.02
2023-04-06T07:43:03.240Z,7.15
2023-04-06T07:45:30.768Z,5.95
2023-04-06T07:47:57.923Z,8.88
2023-04-06T07:50:24.990Z,9.15
2023-04-06T07:52:52.164Z,6.57
2023-04-06T07:55:19.290Z,6.07
2023-04-06T07:57:46.476Z,7.88
2023-04-06T08:00:14.799Z,6.95
2023-04-06T08:02:42.093Z,5.75
2023-04-06T08:05:12.337Z,8.63
2023-04-06T08:07:39.788Z,6.72
2023-04-06T08:10:07.152Z,6.38
2023-04-06T08:12:35.224Z,6.22
2023-04-06T08:15:03.771Z,9.57
2023-04-06T08:17:32.451Z,7.60
2023-04-06T08:20:01.595Z,6.40
2023-04-06T08:22:29.100Z,7.95
2023-04-06T08:25:00.721Z,4.53
2023-04-06T08:27:31.368Z,9.70
2023-04-06T08:29:58.438Z,9.00
2023-04-06T08:32:26.808Z,9.10
2023-04-06T08:34:57.180Z,8.23
2023-04-06T08:37:26.325Z,7.10
2023-04-06T08:39:53.596Z,7.70
2023-04-06T08:42:22.437Z,5.45
2023-04-06T08:44:52.534Z,7.38
2023-04-06T08:47:23.117Z,9.60
2023-04-06T08:49:52.395Z,7.25
2023-04-06T08:52:20.244Z,7.55
2023-04-06T08:54:48.256Z,8.02
2023-04-06T08:57:16.623Z,6.20
2023-04-06T08:59:44.189Z,5.43
2023-04-06T09:02:21.024Z,6.78
2023-04-06T09:04:51.225Z,5.60
2023-04-06T09:07:18.582Z,7.05
2023-04-06T09:09:49.156Z,6.50
2023-04-06T09:12:30.116Z,7.05
2023-04-06T09:14:58.429Z,6.40
2023-04-06T09:17:31.487Z,5.68
2023-04-06T09:19:58.737Z,7.78
2023-04-06T09:22:27.001Z,4.47
2023-04-06T09:24:55.974Z,4.65
2023-04-06T09:27:33.555Z,5.25
2023-04-06T09:30:15.523Z,4.78
2023-04-06T09:33:01.011Z,5.13
2023-04-06T09:35:28.725Z,7.95
2023-04-06T09:37:56.578Z,6.20
2023-04-06T09:40:23.952Z,6.25
2023-04-06T09:42:53.987Z,8.73
2023-04-06T09:45:22.169Z,4.70
2023-04-06T09:47:52.469Z,6.60
2023-04-06T09:50:20.945Z,5.80
2023-04-06T09:52:51.273Z,5.57
2023-04-06T09:55:44.845Z,4.70
2023-04-06T09:58:17.264Z,7.00
2023-04-06T10:00:48.849Z,5.38
2023-04-06T10:03:26.599Z,6.45
2023-04-06T10:06:01.586Z,5.88
2023-04-06T10:08:32.524Z,5.20
2023-04-06T10:11:02.033Z,4.93
2023-04-06T10:13:29.379Z,9.07
2023-04-06T10:15:57.343Z,6.13
2023-04-06T10:18:24.860Z,7.80
2023-04-06T10:20:58.659Z,5.70
2023-04-06T10:23:50.320Z,4.87
2023-04-06T10:26:21.804Z,5.82
2023-04-06T10:28:50.472Z,7.35
2023-04-06T10:31:29.089Z,5.63
2023-04-06T10:34:04.122Z,6.93
2023-04-06T10:36:35.836Z,6.32
2023-04-06T10:39:05.124Z,7.53
2023-04-06T10:41:35.904Z,6.20
2023-04-06T10:44:03.903Z,7.47
2023-04-06T10:46:32.802Z,4.82
2023-04-06T10:49:12.359Z,7.28
2023-04-06T10:51:40.242Z,8.80
2023-04-06T10:54:08.949Z,8.35
2023-04-06T10:56:40.073Z,4.85
2023-04-06T10:59:08.719Z,5.47
2023-04-06T11:01:36.159Z,5.78
2023-04-06T11:04:03.799Z,5.65
2023-04-06T11:06:32.962Z,7.10
2023-04-06T11:09:01.044Z,4.90
2023-04-06T11:11:28.535Z,8.38
2023-04-06T11:14:00.811Z,4.95
2023-04-06T11:16:29.245Z,6.05
2023-04-06T11:18:58.536Z,5.40
2023-04-06T11:21:48.433Z,5.85
2023-04-06T11:24:21.473Z,6.03
2023-04-06T11:26:52.666Z,7.53
2023-04-06T11:29:31.269Z,6.75
2023-04-06T11:32:03.621Z,7.03
2023-04-06T11:34:34.025Z,7.40
2023-04-06T11:37:07.180Z,7.03
2023-04-06T11:39:44.736Z,6.57
2023-04-06T11:42:11.849Z,5.00
2023-04-06T11:44:40.373Z,8.57
2023-04-06T11:47:09.882Z,7.10
2023-04-06T11:49:45.906Z,6.32
2023-04-06T11:52:25.454Z,7.35
2023-04-06T11:54:54.232Z,5.70
2023-04-06T11:57:25.595Z,5.32
2023-04-06T11:59:53.529Z,6.10
2023-04-06T12:02:21.432Z,7.63
2023-04-06T12:04:48.799Z,6.43
2023-04-06T12:07:16.015Z,8.48
2023-04-06T12:09:44.105Z,7.50
2023-04-06T12:12:11.284Z,6.78
2023-04-06T12:14:38.551Z,6.13
2023-04-06T12:17:05.608Z,7.82
2023-04-06T12:19:32.862Z,7.68
2023-04-06T12:21:59.944Z,7.43
2023-04-06T12:24:27.109Z,9.25
2023-04-06T12:27:06.434Z,6.10
2023-04-06T12:29:36.848Z,7.63
2023-04-06T12:32:04.016Z,6.97
2023-04-06T12:34:32.180Z,6.10
2023-04-06T12:36:59.426Z,6.68
2023-04-06T12:39:27.950Z,9.80
2023-04-06T12:41:55.135Z,7.60
2023-04-06T12:44:23.180Z,7.03
2023-04-06T12:46:51.689Z,8.70
2023-04-06T12:49:20.293Z,8.30
2023-04-06T12:51:47.450Z,5.95
2023-04-06T12:54:14.567Z,5.18
2023-04-06T12:56:42.340Z,5.35
2023-04-06T12:59:09.558Z,6.85
2023-04-06T13:01:36.714Z,5.72
2023-04-06T13:04:03.796Z,6.93
2023-04-06T13:06:31.722Z,9.00
2023-04-06T13:08:58.839Z,4.88
2023-04-06T13:11:28.753Z,8.10
2023-04-06T13:13:56.412Z,6.82
2023-04-06T13:16:23.754Z,5.90
2023-04-06T13:18:51.386Z,6.50
2023-04-06T13:21:18.698Z,7.65
2023-04-06T13:23:45.822Z,5.85
2023-04-06T13:26:14.837Z,6.00
2023-04-06T13:28:42.739Z,6.07
2023-04-06T13:31:11.073Z,7.40
2023-04-06T13:33:38.332Z,4.70
2023-04-06T13:36:07.500Z,7.75
2023-04-06T13:38:34.903Z,8.23
2023-04-06T13:41:02.217Z,6.00
2023-04-06T13:43:29.326Z,6.38
2023-04-06T13:45:59.280Z,4.93
2023-04-06T13:48:27.271Z,7.75
2023-04-06T13:50:54.995Z,7.28
2023-04-06T13:53:22.200Z,8.65
2023-04-06T13:55:56.364Z,6.22
2023-04-06T13:58:24.150Z,6.30
2023-04-06T14:00:51.948Z,7.35
2023-04-06T14:03:20.156Z,6.55
2023-04-06T14:05:47.604Z,7.60
2023-04-06T14:08:14.722Z,7.15
2023-04-06T14:10:45.827Z,6.60
2023-04-06T14:13:12.984Z,6.22
2023-04-06T14:15:40.900Z,6.80
2023-04-06T14:18:10.143Z,6.18
2023-04-06T14:20:37.566Z,5.80
2023-04-06T14:23:05.174Z,5.50
2023-04-06T14:25:33.240Z,5.88
2023-04-06T14:28:00.467Z,7.85
2023-04-06T14:30:29.040Z,4.55
2023-04-06T14:32:59.559Z,9.48
2023-04-06T14:35:29.612Z,11.43
2023-04-06T14:38:02.638Z,6.28
2023-04-06T14:40:29.683Z,6.60
2023-04-06T14:42:57.712Z,6.00
2023-04-06T14:45:24.753Z,6.82
2023-04-06T14:47:51.849Z,6.82
2023-04-06T14:50:18.992Z,6.10
2023-04-06T14:52:47.643Z,7.45
2023-04-06T14:55:15.277Z,6.07
2023-04-06T14:57:42.347Z,6.00
2023-04-06T15:00:10.709Z,3.80
2023-04-06T15:02:38.419Z,4.80
2023-04-06T15:05:06.798Z,8.05
2023-04-06T15:07:33.973Z,4.90
2023-04-06T15:10:01.230Z,4.63
2023-04-06T15:12:30.717Z,8.13
2023-04-06T15:14:57.982Z,4.20
2023-04-06T15:17:27.528Z,5.10
2023-04-06T15:19:55.558Z,4.13
2023-04-06T15:22:22.630Z,5.18
2023-04-06T15:24:49.962Z,4.28
2023-04-06T15:27:17.117Z,4.07
2023-04-06T15:29:44.331Z,5.43
2023-04-06T15:32:11.830Z,6.07
2023-04-06T15:34:38.969Z,5.45
2023-04-06T15:37:06.365Z,5.68
2023-04-06T15:39:34.301Z,5.38
2023-04-06T15:42:01.853Z,6.40
2023-04-06T15:44:28.956Z,4.85
2023-04-06T15:46:56.932Z,5.32
2023-04-06T15:49:24.086Z,5.40
2023-04-06T15:51:52.293Z,3.75
2023-04-06T15:54:21.358Z,6.30
2023-04-06T15:56:49.813Z,4.53
2023-04-06T15:59:17.315Z,3.92
2023-04-06T16:01:46.393Z,4.25
2023-04-06T16:04:15.096Z,4.55
2023-04-06T16:06:42.481Z,5.18
2023-04-06T16:09:09.607Z,6.20
2023-04-06T16:11:37.189Z,5.68
2023-04-06T16:14:05.340Z,8.30
2023-04-06T16:16:32.619Z,4.30
2023-04-06T16:18:59.882Z,6.13
2023-04-06T16:21:27.680Z,5.88
2023-04-06T16:23:55.267Z,5.35
2023-04-06T16:26:23.985Z,7.93
2023-04-06T16:28:52.460Z,5.15
2023-04-06T16:31:22.275Z,5.55
2023-04-06T16:33:50.978Z,7.20
2023-04-06T16:36:29.803Z,6.75
2023-04-06T16:38:58.549Z,5.78
2023-04-06T16:41:27.677Z,6.70
2023-04-06T16:43:57.577Z,7.28
2023-04-06T16:46:32.540Z,9.77
2023-04-06T16:49:00.610Z,9.13
2023-04-06T16:51:28.036Z,6.20
2023-04-06T16:53:55.278Z,8.82
2023-04-06T16:56:22.521Z,8.23
2023-04-06T16:58:49.599Z,7.88
2023-04-06T17:01:25.330Z,7.63
2023-04-06T17:03:53.543Z,5.07
2023-04-06T17:06:21.126Z,6.30
2023-04-06T17:08:49.563Z,7.72
2023-04-06T17:11:20.525Z,7.40
2023-04-06T17:13:52.680Z,6.72
2023-04-06T17:16:21.174Z,9.70
2023-04-06T17:18:48.432Z,6.70
2023-04-06T17:21:17.216Z,8.75
2023-04-06T17:23:44.590Z,13.88
2023-04-06T17:26:11.990Z,7.30
2023-04-06T17:28:39.339Z,7.00
2023-04-06T17:31:11.211Z,6.45
2023-04-06T17:33:42.257Z,7.57
2023-04-06T17:36:11.223Z,6.93
2023-04-06T17:38:43.465Z,10.05
2023-04-06T17:41:12.538Z,9.82
2023-04-06T17:43:40.186Z,6.47
2023-04-06T17:46:07.477Z,5.93
2023-04-06T17:48:34.673Z,10.40
2023-04-06T17:51:02.276Z,6.28
2023-04-06T17:53:32.771Z,7.85
2023-04-06T17:56:04.301Z,7.65
2023-04-06T17:58:31.391Z,6.57
2023-04-06T18:00:58.593Z,7.03
2023-04-06T18:03:25.830Z,9.13
2023-04-06T18:05:52.972Z,52.95
2023-04-06T18:08:20.095Z,51.55
2023-04-06T18:10:48.628Z,62.53
2023-04-06T18:13:15.898Z,50.22
2023-04-06T18:15:43.182Z,38.65
2023-04-06T18:18:10.444Z,40.55
2023-04-06T18:20:42.595Z,62.63
2023-04-06T18:23:09.747Z,29.48
2023-04-06T18:25:41.008Z,30.73
2023-04-06T18:28:10.206Z,24.00
2023-04-06T18:30:37.429Z,26.98
2023-04-06T18:33:04.987Z,19.35
2023-04-06T18:35:32.141Z,20.48
2023-04-06T18:37:59.275Z,24.65
2023-04-06T18:40:40.347Z,19.45
2023-04-06T18:43:08.942Z,19.38
2023-04-06T18:45:39.012Z,17.70
2023-04-06T18:48:06.842Z,17.85
2023-04-06T18:50:34.435Z,20.48
2023-04-06T18:53:02.138Z,16.88
2023-04-06T18:55:32.049Z,31.75
2023-04-06T18:57:59.435Z,30.10
2023-04-06T19:00:28.136Z,23.05
2023-04-06T19:02:55.899Z,12.95
2023-04-06T19:05:23.414Z,12.18
2023-04-06T19:07:52.972Z,16.65
2023-04-06T19:10:20.349Z,14.18
2023-04-06T19:12:48.203Z,13.30
2023-04-06T19:15:15.550Z,10.65
2023-04-06T19:17:42.871Z,12.30
2023-04-06T19:20:10.607Z,16.05
2023-04-06T19:22:38.289Z,13.45
2023-04-06T19:25:06.603Z,13.75
2023-04-06T19:27:34.550Z,15.65
2023-04-06T19:30:01.789Z,19.08
2023-04-06T19:32:30.420Z,15.95
2023-04-06T19:34:59.878Z,20.88
2023-04-06T19:37:28.885Z,18.50
2023-04-06T19:39:56.083Z,15.75
2023-04-06T19:42:24.581Z,18.92
2023-04-06T19:44:53.198Z,19.98
2023-04-06T19:47:20.755Z,18.23
2023-04-06T19:49:47.945Z,18.80
2023-04-06T19:52:15.667Z,17.60
2023-04-06T19:54:42.936Z,21.45
2023-04-06T19:57:10.183Z,21.23
2023-04-06T19:59:37.501Z,23.02
2023-04-06T20:02:04.785Z,16.77
2023-04-06T20:04:32.001Z,16.55
2023-04-06T20:06:59.202Z,21.20
2023-04-06T20:09:26.590Z,22.10
2023-04-06T20:11:54.541Z,23.27
2023-04-06T20:14:23.003Z,19.83
2023-04-06T20:16:50.953Z,18.50
2023-04-06T20:19:18.363Z,16.88
2023-04-06T20:21:45.559Z,16.67
2023-04-06T20:24:12.675Z,18.35
2023-04-06T20:26:39.852Z,16.75
2023-04-06T20:29:06.944Z,18.15
2023-04-06T20:31:34.135Z,16.65
2023-04-06T20:34:01.808Z,19.77
2023-04-06T20:36:32.014Z,20.80
2023-04-06T20:38:59.198Z,15.43
2023-04-06T20:41:26.295Z,14.27
2023-04-06T20:43:53.437Z,12.68
2023-04-06T20:46:20.888Z,11.27
2023-04-06T20:48:48.055Z,12.38
2023-04-06T20:51:25.755Z,11.65
2023-04-06T20:53:53.122Z,10.63
2023-04-06T20:56:22.145Z,13.55
2023-04-06T20:58:49.836Z,12.48
2023-04-06T21:01:18.338Z,11.95
2023-04-06T21:03:45.952Z,11.57
2023-04-06T21:06:13.232Z,12.63
2023-04-06T21:08:40.454Z,15.70
2023-04-06T21:11:07.919Z,26.98
2023-04-06T21:13:35.897Z,30.02
2023-04-06T21:16:03.571Z,19.20
2023-04-06T21:18:32.265Z,15.93
2023-04-06T21:20:59.729Z,16.15
2023-04-06T21:23:27.531Z,15.48
2023-04-06T21:25:57.532Z,13.27
2023-04-06T21:28:25.890Z,15.88
2023-04-06T21:30:53.950Z,13.85
2023-04-06T21:33:21.365Z,16.02
2023-04-06T21:35:49.604Z,16.02
2023-04-06T21:38:17.871Z,16.05
2023-04-06T21:40:44.941Z,16.75
2023-04-06T21:43:12.079Z,21.77
2023-04-06T21:45:39.432Z,19.05
2023-04-06T21:48:07.240Z,17.58
2023-04-06T21:50:39.124Z,16.10
2023-04-06T21:53:06.202Z,19.38
2023-04-06T21:55:33.341Z,18.20
2023-04-06T21:58:00.550Z,17.60
2023-04-06T22:00:27.767Z,15.68
2023-04-06T22:02:54.978Z,23.70
2023-04-06T22:05:22.278Z,19.02
2023-04-06T22:07:49.452Z,20.70
2023-04-06T22:10:16.591Z,17.95
2023-04-06T22:12:43.786Z,21.27
2023-04-06T22:15:13.953Z,19.08
2023-04-06T22:17:41.107Z,18.08
2023-04-06T22:20:08.406Z,19.00
2023-04-06T22:22:35.695Z,17.30
2023-04-06T22:25:02.869Z,18.77
2023-04-06T22:27:30.141Z,16.08
2023-04-06T22:29:57.174Z,18.05
2023-04-06T22:32:24.470Z,15.23
2023-04-06T22:34:51.601Z,14.35
2023-04-06T22:37:18.701Z,15.63
2023-04-06T22:39:45.971Z,18.48
2023-04-06T22:42:12.997Z,17.38
2023-04-06T22:44:40.086Z,14.82
2023-04-06T22:47:07.524Z,15.75
2023-04-06T22:49:34.645Z,13.45
2023-04-06T22:52:01.722Z,12.48
2023-04-06T22:54:28.846Z,15.07
2023-04-06T22:56:56.908Z,13.30
2023-04-06T22:59:23.946Z,17.95
2023-04-06T23:01:51.209Z,15.50
2023-04-06T23:04:18.612Z,22.60
2023-04-06T23:06:46.305Z,26.98
2023-04-06T23:09:13.389Z,20.60
2023-04-06T23:11:40.542Z,12.77
2023-04-06T23:14:07.601Z,16.95
2023-04-06T23:16:34.807Z,13.13
2023-04-06T23:19:02.009Z,12.98
2023-04-06T23:21:29.764Z,16.98
2023-04-06T23:23:58.456Z,15.43
2023-04-06T23:26:26.293Z,12.02
2023-04-06T23:28:53.406Z,14.30
2023-04-06T23:31:20.552Z,13.75
2023-04-06T23:33:47.769Z,13.68
2023-04-06T23:36:14.915Z,16.08
2023-04-06T23:38:42.051Z,15.35
2023-04-06T23:41:09.122Z,16.98
2023-04-06T23:43:36.195Z,18.95
2023-04-06T23:46:03.328Z,17.60
2023-04-06T23:48:30.389Z,17.80
2023-04-06T23:50:57.493Z,17.63
2023-04-06T23:53:25.048Z,15.73
2023-04-06T23:55:52.134Z,16.98
2023-04-06T23:58:19.784Z,15.30
